Time;durP1;ratioP1;P1;durP2;ratioP2;P2;SDS_P1;SDS_P2;PMS_P1;PMS_P2;Temp;Humidity;BMP_temperature;BMP_pressure;BME280_temperature;BME280_humidity;BME280_pressure;Samples;Min_cycle;Max_cycle;Signal;HPM_P1;HPM_P2
2023/04/20 00:00:24;;;;;;;25.40;16.50;;;;;;;4.96;100.00;101471.50;7398833;19;20026;-68
2023/04/20 00:02:53;;;;;;;24.40;16.15;;;;;;;4.95;100.00;101468.00;7397675;19;20045;-68
2023/04/20 00:05:22;;;;;;;23.15;15.43;;;;;;;4.95;100.00;101468.00;7396082;19;20212;-68
2023/04/20 00:07:50;;;;;;;28.02;16.27;;;;;;;4.95;100.00;101469.75;7396011;19;20018;-68
2023/04/20 00:10:19;;;;;;;21.27;16.27;;;;;;;4.95;100.00;101465.41;7395977;19;20022;-68
2023/04/20 00:12:47;;;;;;;25.30;16.33;;;;;;;4.95;100.00;101469.75;7397075;19;20496;-69
2023/04/20 00:15:18;;;;;;;24.83;17.48;;;;;;;4.95;100.00;101467.16;7395806;19;20031;-70
2023/04/20 00:17:47;;;;;;;22.73;15.75;;;;;;;4.94;100.00;101461.09;7396931;19;20422;-69
2023/04/20 00:20:17;;;;;;;23.50;16.48;;;;;;;4.95;100.00;101464.56;7397050;19;20023;-69
2023/04/20 00:22:45;;;;;;;26.65;17.73;;;;;;;4.96;100.00;101469.78;7395972;19;20022;-69
2023/04/20 00:25:14;;;;;;;24.42;16.40;;;;;;;4.97;100.00;101455.06;7395137;19;20024;-68
2023/04/20 00:27:42;;;;;;;22.85;16.05;;;;;;;4.98;100.00;101460.28;7397403;19;20019;-68
2023/04/20 00:30:12;;;;;;;26.25;17.30;;;;;;;5.00;100.00;101460.28;7396095;19;20010;-68
2023/04/20 00:32:43;;;;;;;22.80;17.10;;;;;;;5.00;100.00;101457.69;7397146;19;20028;-68
2023/04/20 00:35:12;;;;;;;24.20;17.17;;;;;;;4.99;100.00;101458.53;7396714;19;20018;-68
2023/04/20 00:37:40;;;;;;;24.98;16.23;;;;;;;4.99;100.00;101458.53;7396700;19;20022;-68
2023/04/20 00:40:10;;;;;;;25.63;16.13;;;;;;;4.99;100.00;101455.94;7396610;19;20035;-68
2023/04/20 00:42:39;;;;;;;20.98;16.58;;;;;;;4.98;100.00;101457.66;7396632;19;20018;-68
2023/04/20 00:45:09;;;;;;;21.70;16.38;;;;;;;4.95;100.00;101457.63;7394971;19;20081;-68
2023/04/20 00:47:37;;;;;;;21.60;15.55;;;;;;;4.94;100.00;101450.69;7396617;19;20022;-68
2023/04/20 00:50:10;;;;;;;19.10;14.18;;;;;;;4.92;100.00;101451.53;7394761;19;20035;-68
2023/04/20 00:52:39;;;;;;;20.58;14.73;;;;;;;4.91;100.00;101458.44;7396482;19;20011;-68
2023/04/20 00:55:08;;;;;;;23.55;15.52;;;;;;;4.92;100.00;101461.94;7396068;19;20027;-68
2023/04/20 00:57:37;;;;;;;21.55;15.50;;;;;;;4.90;100.00;101459.28;7396027;19;20418;-68
2023/04/20 01:00:09;;;;;;;21.92;15.20;;;;;;;4.90;100.00;101451.47;7394609;19;20023;-69
2023/04/20 01:02:38;;;;;;;23.08;16.88;;;;;;;4.89;100.00;101453.22;7396139;19;20025;-69
2023/04/20 01:05:09;;;;;;;22.52;16.30;;;;;;;4.89;100.00;101457.53;7394496;19;20031;-69
2023/04/20 01:07:38;;;;;;;21.95;16.08;;;;;;;4.87;100.00;101451.47;7394895;19;20026;-69
2023/04/20 01:10:08;;;;;;;24.98;17.10;;;;;;;4.86;100.00;101449.72;7395609;19;20498;-69
2023/04/20 01:12:37;;;;;;;23.83;17.20;;;;;;;4.86;100.00;101452.31;7396098;19;20039;-68
2023/04/20 01:15:07;;;;;;;22.55;16.17;;;;;;;4.86;100.00;101452.31;7394364;19;20022;-68
2023/04/20 01:17:36;;;;;;;23.83;17.35;;;;;;;4.86;100.00;101449.72;7395802;19;20039;-68
2023/04/20 01:20:07;;;;;;;25.80;16.55;;;;;;;4.86;100.00;101453.16;7395259;19;20031;-68
2023/04/20 01:22:45;;;;;;;22.65;16.23;;;;;;;4.86;100.00;101447.09;7395042;19;20018;-68
2023/04/20 01:25:13;;;;;;;22.45;16.65;;;;;;;4.86;100.00;101442.75;7393915;19;20018;-68
2023/04/20 01:27:42;;;;;;;24.50;17.00;;;;;;;4.85;100.00;101446.25;7394214;19;20509;-68
2023/04/20 01:30:12;;;;;;;28.10;16.60;;;;;;;4.84;100.00;101438.41;7393931;19;20018;-68
2023/04/20 01:32:41;;;;;;;25.77;17.02;;;;;;;4.83;100.00;101441.88;7394682;19;20031;-67
2023/04/20 01:35:10;;;;;;;24.75;18.45;;;;;;;4.82;100.00;101437.53;7395262;19;20035;-68
2023/04/20 01:37:42;;;;;;;24.20;17.45;;;;;;;4.80;100.00;101442.72;7395167;19;20015;-67
2023/04/20 01:40:11;;;;;;;27.77;17.17;;;;;;;4.79;100.00;101440.97;7395213;19;20395;-68
2023/04/20 01:42:40;;;;;;;27.35;18.48;;;;;;;4.79;100.00;101438.34;7394454;19;20019;-68
2023/04/20 01:45:10;;;;;;;28.15;17.65;;;;;;;4.77;100.00;101444.38;7393074;19;20039;-68
2023/04/20 01:47:38;;;;;;;27.60;18.67;;;;;;;4.75;100.00;101449.53;7395349;19;20019;-68
2023/04/20 01:50:08;;;;;;;24.85;17.52;;;;;;;4.71;100.00;101443.47;7396909;19;20014;-69
2023/04/20 01:52:36;;;;;;;25.55;17.42;;;;;;;4.68;100.00;101446.00;7394693;19;20032;-68
2023/04/20 01:55:08;;;;;;;29.23;18.55;;;;;;;4.65;100.00;101448.56;7395219;19;20427;-68
2023/04/20 01:57:37;;;;;;;27.13;19.08;;;;;;;4.59;100.00;101440.69;7393253;19;20018;-68
2023/04/20 02:00:07;;;;;;;28.50;17.55;;;;;;;4.60;100.00;101441.53;7394201;19;20043;-68
2023/04/20 02:02:35;;;;;;;29.08;19.20;;;;;;;4.57;100.00;101445.88;7393960;19;20087;-68
2023/04/20 02:05:04;;;;;;;28.15;19.40;;;;;;;4.55;100.00;101446.69;7393287;19;20031;-68
2023/04/20 02:07:33;;;;;;;27.95;18.80;;;;;;;4.51;100.00;101450.97;7394147;19;20010;-68
2023/04/20 02:10:01;;;;;;;31.15;18.90;;;;;;;4.47;100.00;101435.31;7392436;19;20018;-68
2023/04/20 02:12:32;;;;;;;30.00;20.08;;;;;;;4.43;100.00;101438.72;7394148;19;20018;-69
2023/04/20 02:15:01;;;;;;;27.55;19.92;;;;;;;4.39;100.00;101435.19;7394665;19;20015;-67
2023/04/20 02:17:31;;;;;;;33.17;20.17;;;;;;;4.34;100.00;101437.72;7393774;19;20509;-68
2023/04/20 02:20:00;;;;;;;28.35;19.77;;;;;;;4.32;100.00;101444.63;7393844;19;20481;-67
2023/04/20 02:22:28;;;;;;;28.52;19.77;;;;;;;4.30;100.00;101446.31;7394768;19;20015;-67
2023/04/20 02:24:57;;;;;;;31.08;21.17;;;;;;;4.28;100.00;101448.00;7393955;19;20018;-67
2023/04/20 02:27:25;;;;;;;26.70;19.77;;;;;;;4.23;100.00;101442.75;7393525;19;20031;-67
2023/04/20 02:29:56;;;;;;;31.13;20.20;;;;;;;4.21;100.00;101448.78;7392721;19;20031;-68
2023/04/20 02:32:25;;;;;;;30.60;20.65;;;;;;;4.18;100.00;101448.72;7391976;19;20022;-67
2023/04/20 02:34:53;;;;;;;27.48;19.23;;;;;;;4.14;100.00;101446.94;7393610;19;20026;-68
2023/04/20 02:37:22;;;;;;;30.13;19.40;;;;;;;4.10;100.00;101447.75;7393506;19;20019;-68
2023/04/20 02:39:50;;;;;;;29.95;19.25;;;;;;;4.06;100.00;101450.25;7398753;19;20421;-68
2023/04/20 02:42:18;;;;;;;30.73;20.13;;;;;;;4.04;100.00;101448.50;7400928;19;20022;-68
2023/04/20 02:44:47;;;;;;;32.38;21.10;;;;;;;4.02;100.00;101453.66;7398008;19;20043;-68
2023/04/20 02:47:18;;;;;;;32.88;21.10;;;;;;;4.00;100.00;101446.72;7400170;19;20086;-68
2023/04/20 02:49:46;;;;;;;30.15;19.83;;;;;;;3.98;100.00;101448.38;7400333;19;20014;-68
2023/04/20 02:52:15;;;;;;;29.63;20.38;;;;;;;3.97;100.00;101451.81;7400586;19;20019;-68
2023/04/20 02:54:43;;;;;;;28.45;19.55;;;;;;;3.95;100.00;101449.22;7397556;19;20018;-68
2023/04/20 02:57:12;;;;;;;32.40;21.58;;;;;;;3.94;100.00;101457.84;7400028;19;20502;-68
2023/04/20 02:59:41;;;;;;;34.00;21.48;;;;;;;3.92;100.00;101454.38;7400217;19;20029;-68
2023/04/20 03:02:09;;;;;;;30.05;20.50;;;;;;;3.91;100.00;101463.00;7399766;19;20120;-68
2023/04/20 03:04:40;;;;;;;30.45;20.52;;;;;;;3.89;100.00;101465.56;7397518;19;20082;-67
2023/04/20 03:07:09;;;;;;;35.40;21.85;;;;;;;3.91;100.00;101469.06;7399772;19;20374;-68
2023/04/20 03:09:37;;;;;;;32.42;21.70;;;;;;;3.92;100.00;101462.16;7399856;19;20015;-68
2023/04/20 03:12:07;;;;;;;31.95;22.08;;;;;;;3.92;100.00;101463.00;7399614;19;20037;-68
2023/04/20 03:14:35;;;;;;;32.30;22.25;;;;;;;3.94;100.00;101462.19;7396731;19;20015;-68
2023/04/20 03:17:03;;;;;;;29.45;21.30;;;;;;;3.95;100.00;101461.34;7399216;19;20486;-68
2023/04/20 03:19:32;;;;;;;32.25;22.55;;;;;;;3.95;100.00;101462.19;7397406;19;20023;-68
2023/04/20 03:22:03;;;;;;;31.05;21.50;;;;;;;3.95;100.00;101449.22;7399212;19;20074;-67
2023/04/20 03:24:31;;;;;;;33.53;23.27;;;;;;;3.95;100.00;101454.41;7397458;19;20021;-68
2023/04/20 03:27:00;;;;;;;32.15;23.15;;;;;;;3.97;100.00;101460.50;7397073;19;20103;-68
2023/04/20 03:29:28;;;;;;;35.70;24.60;;;;;;;3.97;100.00;101463.09;7398562;19;20015;-69
2023/04/20 03:31:57;;;;;;;31.83;21.77;;;;;;;3.98;100.00;101462.25;7398876;19;20533;-68
2023/04/20 03:34:25;;;;;;;32.78;21.75;;;;;;;3.97;100.00;101460.50;7397004;19;20014;-68
2023/04/20 03:36:54;;;;;;;36.72;23.23;;;;;;;3.98;100.00;101454.47;7399081;19;20036;-69
2023/04/20 03:39:25;;;;;;;34.40;22.45;;;;;;;3.98;100.00;101464.88;7399157;19;20022;-70
2023/04/20 03:41:54;;;;;;;35.00;23.67;;;;;;;3.97;100.00;101467.41;7399210;19;20014;-68
2023/04/20 03:44:22;;;;;;;33.92;22.85;;;;;;;3.95;100.00;101469.97;7396377;19;20018;-69
2023/04/20 03:46:50;;;;;;;33.17;23.08;;;;;;;3.94;100.00;101470.81;7398395;19;20015;-69
2023/04/20 03:49:19;;;;;;;36.42;24.13;;;;;;;3.94;100.00;101467.38;7398062;19;20029;-67
2023/04/20 03:51:47;;;;;;;33.13;22.77;;;;;;;3.91;100.00;101469.06;7396611;19;20510;-69
2023/04/20 03:54:16;;;;;;;35.00;23.83;;;;;;;3.92;100.00;101470.81;7396962;19;20025;-68
2023/04/20 03:56:48;;;;;;;33.58;24.30;;;;;;;3.92;100.00;101478.59;7398602;19;20025;-68
2023/04/20 03:59:17;;;;;;;37.17;24.38;;;;;;;3.92;100.00;101472.53;7396594;19;20018;-67
2023/04/20 04:01:45;;;;;;;34.63;24.65;;;;;;;3.96;100.00;101473.47;7397785;19;20503;-66
2023/04/20 04:04:13;;;;;;;34.80;23.75;;;;;;;3.98;100.00;101485.63;7396304;19;20038;-67
2023/04/20 04:06:42;;;;;;;41.13;25.63;;;;;;;4.01;100.00;101490.00;7395768;19;20081;-67
2023/04/20 04:09:17;;;;;;;35.75;25.20;;;;;;;4.01;100.00;101496.06;7397188;19;20086;-67
2023/04/20 04:11:48;;;;;;;35.10;24.40;;;;;;;4.01;100.00;101493.47;7397423;19;20563;-67
2023/04/20 04:14:17;;;;;;;34.17;24.80;;;;;;;4.02;100.00;101490.03;7396006;19;20034;-67
2023/04/20 04:16:45;;;;;;;35.90;24.40;;;;;;;4.03;100.00;101491.78;7397204;19;20021;-67
2023/04/20 04:19:13;;;;;;;37.53;25.13;;;;;;;4.03;100.00;101496.97;7396775;19;20450;-67
2023/04/20 04:21:42;;;;;;;33.00;23.35;;;;;;;4.02;100.00;101492.63;7397262;19;20015;-67
2023/04/20 04:24:11;;;;;;;32.08;22.08;;;;;;;4.02;100.00;101495.22;7395330;19;20018;-67
2023/04/20 04:26:40;;;;;;;33.35;23.15;;;;;;;4.02;100.00;101500.41;7394852;19;20011;-67
2023/04/20 04:29:12;;;;;;;35.85;25.15;;;;;;;4.00;100.00;101501.22;7397165;19;20085;-67
2023/04/20 04:31:40;;;;;;;39.28;26.35;;;;;;;3.98;100.00;101502.91;7395851;19;20011;-68
2023/04/20 04:34:17;;;;;;;40.03;27.05;;;;;;;3.97;100.00;101509.84;7395337;19;20019;-68
2023/04/20 04:36:45;;;;;;;42.80;30.20;;;;;;;3.95;100.00;101505.47;7397193;19;20022;-68
2023/04/20 04:39:14;;;;;;;49.40;31.05;;;;;;;3.90;100.00;101495.00;7394519;19;20552;-68
2023/04/20 04:41:42;;;;;;;53.30;34.50;;;;;;;3.87;100.00;101493.22;7395795;19;20366;-68
2023/04/20 04:44:14;;;;;;;53.38;33.05;;;;;;;3.84;100.00;101497.47;7394461;19;20033;-68
2023/04/20 04:46:46;;;;;;;57.72;35.10;;;;;;;3.82;100.00;101512.16;7394341;19;20014;-68
2023/04/20 04:49:14;;;;;;;50.97;32.35;;;;;;;3.79;100.00;101519.88;7393992;19;20498;-68
2023/04/20 04:51:43;;;;;;;54.80;35.00;;;;;;;3.75;100.00;101516.34;7396070;19;20129;-68
2023/04/20 04:54:11;;;;;;;51.05;32.35;;;;;;;3.71;100.00;101510.22;7394227;19;20086;-69
2023/04/20 04:56:39;;;;;;;53.38;33.50;;;;;;;3.70;100.00;101513.69;7395401;19;20017;-68
2023/04/20 04:59:08;;;;;;;50.53;33.30;;;;;;;3.70;100.00;101518.00;7395763;19;20018;-69
2023/04/20 05:01:39;;;;;;;53.53;33.38;;;;;;;3.69;100.00;101521.41;7393701;19;20074;-68
2023/04/20 05:04:07;;;;;;;51.75;32.50;;;;;;;3.69;100.00;101521.41;7393961;19;20014;-68
2023/04/20 05:06:36;;;;;;;50.03;31.90;;;;;;;3.68;100.00;101524.88;7392617;19;20014;-69
2023/04/20 05:09:05;;;;;;;51.75;31.90;;;;;;;3.66;100.00;101516.19;7394165;19;20022;-69
2023/04/20 05:11:33;;;;;;;47.58;32.50;;;;;;;3.64;100.00;101510.97;7393369;19;20373;-69
2023/04/20 05:14:02;;;;;;;47.60;29.75;;;;;;;3.64;100.00;101516.16;7392979;19;20136;-68
2023/04/20 05:16:31;;;;;;;45.97;30.63;;;;;;;3.61;100.00;101518.69;7393196;19;20018;-68
2023/04/20 05:19:02;;;;;;;44.30;29.17;;;;;;;3.61;100.00;101520.41;7392009;19;20094;-68
2023/04/20 05:21:31;;;;;;;41.33;27.83;;;;;;;3.58;100.00;101529.00;7392061;19;20015;-69
2023/04/20 05:24:00;;;;;;;45.78;30.13;;;;;;;3.56;100.00;101530.69;7392393;19;20018;-69
2023/04/20 05:26:28;;;;;;;45.85;30.13;;;;;;;3.56;100.00;101529.00;7393455;19;20023;-69
2023/04/20 05:28:56;;;;;;;48.88;31.20;;;;;;;3.59;100.00;101538.56;7396955;19;20089;-70
2023/04/20 05:31:25;;;;;;;44.75;28.95;;;;;;;3.61;100.00;101541.19;7394864;19;20024;-69
2023/04/20 05:33:53;;;;;;;38.78;25.58;;;;;;;3.61;100.00;101544.63;7393204;19;20019;-70
2023/04/20 05:36:25;;;;;;;40.80;27.80;;;;;;;3.62;100.00;101546.38;7392412;19;20498;-72
2023/04/20 05:38:53;;;;;;;40.38;27.13;;;;;;;3.64;100.00;101536.94;7394829;19;20019;-69
2023/04/20 05:41:25;;;;;;;48.10;30.10;;;;;;;3.66;100.00;101547.34;7394281;19;20011;-69
2023/04/20 05:43:54;;;;;;;45.15;29.65;;;;;;;3.67;100.00;101554.28;7393043;19;20429;-69
2023/04/20 05:46:23;;;;;;;40.97;26.88;;;;;;;3.67;100.00;101549.09;7392368;19;20382;-69
2023/04/20 05:48:51;;;;;;;41.22;26.13;;;;;;;3.66;100.00;101558.56;7394393;19;20015;-69
2023/04/20 05:51:20;;;;;;;44.75;28.42;;;;;;;3.64;100.00;101561.97;7392693;19;20094;-69
2023/04/20 05:53:51;;;;;;;50.78;29.75;;;;;;;3.62;100.00;101564.56;7392840;19;20018;-69
2023/04/20 05:56:20;;;;;;;47.95;29.48;;;;;;;3.63;100.00;101566.31;7394677;19;20078;-68
2023/04/20 05:58:49;;;;;;;57.40;33.08;;;;;;;3.64;100.00;101555.09;7393948;19;20082;-68
2023/04/20 06:01:18;;;;;;;47.65;29.65;;;;;;;3.67;100.00;101555.13;7394511;19;20025;-68
2023/04/20 06:03:47;;;;;;;46.90;27.70;;;;;;;3.66;100.00;101548.19;7392357;19;20038;-69
2023/04/20 06:06:16;;;;;;;38.80;25.45;;;;;;;3.67;100.00;101560.31;7392819;19;20018;-68
2023/04/20 06:08:44;;;;;;;41.67;26.33;;;;;;;3.68;100.00;101558.63;7392098;19;20102;-69
2023/04/20 06:11:15;;;;;;;40.25;24.42;;;;;;;3.69;100.00;101545.69;7393730;19;20014;-69
2023/04/20 06:13:44;;;;;;;34.80;23.13;;;;;;;3.74;100.00;101551.81;7399027;19;20018;-69
2023/04/20 06:16:12;;;;;;;37.00;24.58;;;;;;;3.77;100.00;101547.53;7401309;19;20070;-69
2023/04/20 06:18:41;;;;;;;35.22;23.50;;;;;;;3.86;100.00;101558.09;7398382;19;20011;-69
2023/04/20 06:21:11;;;;;;;35.17;22.58;;;;;;;3.94;100.00;101559.09;7398578;19;20014;-69
2023/04/20 06:23:40;;;;;;;38.28;23.42;;;;;;;4.00;100.00;101561.81;7400020;19;20041;-69
2023/04/20 06:26:09;;;;;;;39.25;23.17;;;;;;;4.06;100.00;101550.69;7399551;19;20372;-68
2023/04/20 06:28:40;;;;;;;33.90;22.40;;;;;;;4.13;100.00;101549.91;7400436;19;20082;-69
2023/04/20 06:31:15;;;;;;;34.65;22.00;;;;;;;4.17;100.00;101549.16;7398080;19;20370;-68
2023/04/20 06:33:44;;;;;;;33.25;21.52;;;;;;;4.22;100.00;101546.63;7398895;19;20102;-68
2023/04/20 06:36:12;;;;;;;29.40;20.63;;;;;;;4.25;100.00;101557.06;7398126;19;20078;-68
2023/04/20 06:38:40;;;;;;;27.65;18.98;;;;;;;4.29;100.00;101552.81;7400297;19;20429;-69
2023/04/20 06:41:09;;;;;;;29.38;20.15;;;;;;;4.32;100.00;101555.44;7400432;19;20070;-69
2023/04/20 06:43:40;;;;;;;29.52;19.52;;;;;;;4.33;100.00;101557.22;7399221;19;20082;-69
2023/04/20 06:46:09;;;;;;;27.95;18.70;;;;;;;4.33;100.00;101559.81;7397258;19;20074;-69
2023/04/20 06:48:37;;;;;;;24.92;17.48;;;;;;;4.33;100.00;101559.81;7400015;19;20018;-69
2023/04/20 06:51:06;;;;;;;25.13;18.67;;;;;;;4.32;100.00;101556.34;7399834;19;20507;-69
2023/04/20 06:53:34;;;;;;;25.10;18.02;;;;;;;4.33;100.00;101552.00;7399082;19;20133;-69
2023/04/20 06:56:03;;;;;;;25.65;18.20;;;;;;;4.32;100.00;101551.16;7400169;19;20023;-69
2023/04/20 06:58:31;;;;;;;26.90;18.30;;;;;;;4.32;100.00;101550.25;7399678;19;20034;-69
2023/04/20 07:01:03;;;;;;;28.10;17.83;;;;;;;4.33;100.00;101565.84;7399495;19;20513;-68
2023/04/20 07:03:32;;;;;;;25.17;17.67;;;;;;;4.34;100.00;101564.16;7397755;19;20014;-70
2023/04/20 07:06:01;;;;;;;25.88;17.00;;;;;;;4.38;100.00;101553.81;7399182;19;20022;-69
2023/04/20 07:08:29;;;;;;;24.50;16.83;;;;;;;4.43;100.00;101560.84;7399104;19;20486;-68
2023/04/20 07:10:58;;;;;;;23.33;16.92;;;;;;;4.48;100.00;101554.84;7399549;19;20027;-68
2023/04/20 07:13:27;;;;;;;25.95;17.38;;;;;;;4.54;100.00;101554.97;7397095;19;20055;-69
2023/04/20 07:15:55;;;;;;;24.48;17.52;;;;;;;4.60;100.00;101563.69;7398757;19;20011;-69
2023/04/20 07:18:26;;;;;;;21.50;15.13;;;;;;;4.63;100.00;101575.03;7396921;19;20082;-68
2023/04/20 07:20:56;;;;;;;24.90;17.92;;;;;;;4.68;100.00;101568.19;7399146;19;20017;-68
2023/04/20 07:23:24;;;;;;;23.13;16.52;;;;;;;4.70;100.00;101566.47;7398212;19;20015;-68
2023/04/20 07:25:54;;;;;;;24.17;17.33;;;;;;;4.78;99.34;101569.19;7395598;19;20027;-68
2023/04/20 07:28:22;;;;;;;24.60;16.92;;;;;;;4.86;99.90;101575.38;7398805;19;20089;-68
2023/04/20 07:30:51;;;;;;;24.98;16.38;;;;;;;4.93;100.00;101584.16;7397961;19;20078;-69
2023/04/20 07:33:19;;;;;;;24.05;17.55;;;;;;;4.98;100.00;101584.22;7398254;19;20015;-69
2023/04/20 07:35:50;;;;;;;23.13;16.73;;;;;;;5.04;100.00;101584.31;7398652;19;20021;-69
2023/04/20 07:38:19;;;;;;;23.45;16.55;;;;;;;5.09;99.54;101590.44;7398358;19;20415;-69
2023/04/20 07:40:47;;;;;;;21.00;16.13;;;;;;;5.15;99.01;101589.69;7398552;19;20028;-69
2023/04/20 07:43:16;;;;;;;24.42;16.45;;;;;;;5.19;99.20;101591.47;7397757;19;20014;-69
2023/04/20 07:45:44;;;;;;;22.65;16.85;;;;;;;5.26;99.26;101597.63;7398341;19;20082;-68
2023/04/20 07:48:13;;;;;;;26.40;17.40;;;;;;;5.30;98.16;101584.69;7395603;19;20423;-69
2023/04/20 07:50:42;;;;;;;24.40;15.95;;;;;;;5.36;98.39;101574.34;7397952;19;20014;-69
2023/04/20 07:53:13;;;;;;;20.10;13.93;;;;;;;5.41;97.34;101576.13;7397113;19;20018;-69
2023/04/20 07:55:41;;;;;;;23.40;16.42;;;;;;;5.44;97.12;101576.19;7397715;19;20043;-68
2023/04/20 07:58:10;;;;;;;22.98;16.65;;;;;;;5.47;96.97;101578.81;7395982;19;20025;-69
2023/04/20 08:00:39;;;;;;;22.90;17.13;;;;;;;5.51;97.29;101578.88;7396120;19;20015;-69
2023/04/20 08:03:07;;;;;;;27.08;18.63;;;;;;;5.56;97.39;101586.75;7396232;19;20019;-69
2023/04/20 08:05:36;;;;;;;31.05;19.80;;;;;;;5.59;96.41;101592.00;7397586;19;20025;-68
2023/04/20 08:08:04;;;;;;;30.98;21.75;;;;;;;5.61;97.51;101595.50;7395094;19;20090;-68
2023/04/20 08:10:36;;;;;;;34.25;22.42;;;;;;;5.63;96.97;101598.97;7397395;19;20018;-69
2023/04/20 08:13:04;;;;;;;30.88;21.92;;;;;;;5.67;96.98;101598.19;7398605;19;20019;-69
2023/04/20 08:15:33;;;;;;;31.55;21.83;;;;;;;5.70;97.52;101602.56;7397422;19;20015;-68
2023/04/20 08:18:01;;;;;;;29.58;19.30;;;;;;;5.74;96.55;101608.66;7395630;19;20022;-68
2023/04/20 08:20:29;;;;;;;30.08;20.58;;;;;;;5.79;96.62;101607.00;7397163;19;20086;-69
2023/04/20 08:22:58;;;;;;;33.45;22.17;;;;;;;5.84;96.20;101605.31;7396608;19;20423;-69
2023/04/20 08:25:26;;;;;;;32.85;22.65;;;;;;;5.88;95.83;101604.50;7397314;19;20073;-68
2023/04/20 08:27:57;;;;;;;35.47;23.33;;;;;;;5.92;96.29;101597.59;7395820;19;20019;-68
2023/04/20 08:30:26;;;;;;;32.88;23.00;;;;;;;5.97;96.09;101603.72;7396808;19;20114;-68
2023/04/20 08:32:54;;;;;;;32.38;22.02;;;;;;;6.03;96.27;101601.22;7396242;19;20015;-67
2023/04/20 08:35:23;;;;;;;30.27;19.42;;;;;;;6.09;96.29;101597.78;7393972;19;20014;-69
2023/04/20 08:37:51;;;;;;;26.00;18.80;;;;;;;6.13;95.61;101597.84;7393255;19;20018;-68
2023/04/20 08:40:20;;;;;;;30.52;20.48;;;;;;;6.18;94.94;101596.16;7396258;19;20363;-69
2023/04/20 08:42:49;;;;;;;41.03;26.90;;;;;;;6.24;94.84;101603.16;7395602;19;20018;-69
2023/04/20 08:45:20;;;;;;;31.55;21.70;;;;;;;6.30;94.97;101594.53;7396224;19;20094;-69
2023/04/20 08:47:49;;;;;;;32.72;21.85;;;;;;;6.33;94.57;101592.84;7395232;19;20015;-68
2023/04/20 08:50:18;;;;;;;33.13;22.00;;;;;;;6.37;93.81;101593.75;7394325;19;20014;-69
2023/04/20 08:52:46;;;;;;;30.38;21.38;;;;;;;6.43;93.96;101598.13;7394919;19;20026;-69
2023/04/20 08:55:17;;;;;;;38.53;25.30;;;;;;;6.50;93.48;101594.72;7395948;19;20018;-68
2023/04/20 08:57:45;;;;;;;52.60;32.30;;;;;;;6.58;93.59;101597.41;7395299;19;20492;-68
2023/04/20 09:00:16;;;;;;;55.80;33.88;;;;;;;6.63;93.12;101599.16;7395512;19;20018;-68
2023/04/20 09:02:57;;;;;;;59.05;35.92;;;;;;;6.74;92.17;101606.22;7395351;19;20077;-68
2023/04/20 09:05:29;;;;;;;63.45;37.95;;;;;;;6.79;92.54;101601.91;7396140;19;20023;-68
2023/04/20 09:08:00;;;;;;;60.38;36.40;;;;;;;6.88;92.30;101593.28;7393733;19;20007;-69
2023/04/20 09:10:40;;;;;;;62.53;37.80;;;;;;;6.96;91.73;101597.69;7393914;19;20014;-69
2023/04/20 09:13:09;;;;;;;65.60;37.97;;;;;;;7.04;92.00;101596.84;7394503;19;20025;-69
2023/04/20 09:15:37;;;;;;;69.28;36.72;;;;;;;7.11;91.95;101596.91;7392797;19;20426;-69
2023/04/20 09:18:17;;;;;;;64.53;39.25;;;;;;;7.22;91.53;101607.41;7395373;19;20019;-68
2023/04/20 09:20:46;;;;;;;61.28;36.35;;;;;;;7.30;89.58;101610.97;7395047;19;20397;-68
2023/04/20 09:23:15;;;;;;;57.80;34.22;;;;;;;7.36;90.49;101610.09;7393341;19;20081;-68
2023/04/20 09:25:45;;;;;;;54.25;33.92;;;;;;;7.40;90.12;101608.41;7393841;19;20074;-69
2023/04/20 09:28:15;;;;;;;54.03;31.35;;;;;;;7.43;90.54;101603.19;7393779;19;20017;-68
2023/04/20 09:30:45;;;;;;;42.60;28.17;;;;;;;7.44;89.67;101599.72;7393473;19;20006;-70
2023/04/20 09:33:18;;;;;;;43.53;28.17;;;;;;;7.44;89.53;101608.44;7394053;19;20513;-69
2023/04/20 09:35:47;;;;;;;34.67;23.50;;;;;;;7.45;89.81;101610.16;7393293;19;20015;-69
2023/04/20 09:38:18;;;;;;;29.42;21.75;;;;;;;7.46;89.34;101611.03;7394361;19;20015;-69
2023/04/20 09:40:46;;;;;;;23.13;16.80;;;;;;;7.45;89.57;101606.69;7393087;19;20011;-69
2023/04/20 09:43:20;;;;;;;20.27;16.27;;;;;;;7.42;89.41;101607.53;7393915;19;20369;-68
2023/04/20 09:45:49;;;;;;;;;;;;;;;7.40;89.38;101605.78;7394147;19;20018;-69
2023/04/20 09:48:20;;;;;;;19.50;13.82;;;;;;;7.39;90.22;101612.72;7396676;19;19994;-69
2023/04/20 09:50:50;;;;;;;19.55;15.32;;;;;;;7.40;89.96;101613.63;7402764;19;20015;-69
2023/04/20 09:53:19;;;;;;;17.88;14.38;;;;;;;7.39;90.20;101610.13;7401229;19;20018;-69
2023/04/20 09:55:49;;;;;;;22.25;16.00;;;;;;;7.40;90.13;101618.84;7402486;19;20098;-69
2023/04/20 09:58:20;;;;;;;20.25;15.02;;;;;;;7.39;90.83;101628.38;7401969;19;20032;-69
2023/04/20 10:00:48;;;;;;;18.83;14.75;;;;;;;7.39;90.57;101628.38;7402335;19;20019;-69
2023/04/20 10:03:21;;;;;;;20.33;15.50;;;;;;;7.36;90.44;101622.31;7400658;19;20033;-69
2023/04/20 10:05:54;;;;;;;19.88;15.68;;;;;;;7.37;91.27;101631.84;7401974;19;20090;-68
2023/04/20 10:08:23;;;;;;;21.77;16.45;;;;;;;7.37;91.35;101637.06;7399244;19;20359;-69
2023/04/20 10:10:52;;;;;;;21.52;16.88;;;;;;;7.36;91.68;101631.00;7402444;19;20015;-69
2023/04/20 10:13:22;;;;;;;17.38;14.68;;;;;;;7.37;91.82;101639.69;7400657;19;20082;-70
2023/04/20 10:15:50;;;;;;;23.08;16.40;;;;;;;7.37;92.19;101637.06;7401050;19;20014;-69
2023/04/20 10:18:25;;;;;;;22.10;16.38;;;;;;;7.40;92.15;101634.50;7401415;19;20032;-69
2023/04/20 10:21:08;;;;;;;24.40;17.38;;;;;;;7.40;92.31;101629.28;7399099;19;20025;-69
2023/04/20 10:23:36;;;;;;;21.67;16.60;;;;;;;7.41;92.56;101623.19;7400271;19;20026;-69
2023/04/20 10:26:05;;;;;;;22.00;16.77;;;;;;;7.41;92.34;101620.59;7400993;19;20074;-69
2023/04/20 10:28:43;;;;;;;21.70;16.60;;;;;;;7.41;92.44;101617.97;7398633;19;20019;-70
2023/04/20 10:31:15;;;;;;;23.02;16.98;;;;;;;7.41;92.67;101607.53;7399703;19;20010;-69
2023/04/20 10:33:57;;;;;;;23.02;16.92;;;;;;;7.42;92.67;101611.88;7397430;19;20540;-69
2023/04/20 10:36:26;;;;;;;23.48;16.05;;;;;;;7.45;93.13;101619.72;7400615;19;20018;-70
2023/04/20 10:38:55;;;;;;;21.27;16.10;;;;;;;7.45;92.86;101615.38;7397432;19;20066;-69
2023/04/20 10:41:23;;;;;;;21.88;17.45;;;;;;;7.47;93.13;101603.22;7401428;19;20548;-70
2023/04/20 10:43:52;;;;;;;23.38;17.27;;;;;;;7.52;93.07;101598.03;7399469;19;20049;-69
2023/04/20 10:46:23;;;;;;;23.02;17.33;;;;;;;7.56;93.35;101597.16;7400524;19;20015;-69
2023/04/20 10:48:59;;;;;;;21.80;16.67;;;;;;;7.61;93.15;101599.81;7398699;19;20051;-70
2023/04/20 10:51:27;;;;;;;22.48;16.38;;;;;;;7.64;93.27;101595.44;7399836;19;20039;-69
2023/04/20 10:54:03;;;;;;;23.08;17.17;;;;;;;7.70;92.40;101593.75;7398913;19;20019;-69
2023/04/20 10:56:39;;;;;;;29.33;18.15;;;;;;;7.73;91.50;101586.75;7400930;19;20018;-68
2023/04/20 10:59:11;;;;;;;30.65;17.92;;;;;;;7.76;92.57;101591.13;7398009;19;20357;-68
2023/04/20 11:01:39;;;;;;;23.00;17.35;;;;;;;7.78;92.43;101585.03;7400697;19;20082;-68
2023/04/20 11:04:12;;;;;;;28.55;18.10;;;;;;;7.79;92.26;101585.94;7398440;19;20025;-70
2023/04/20 11:06:41;;;;;;;23.38;16.27;;;;;;;7.81;91.28;101576.38;7397136;19;20015;-68
2023/04/20 11:09:25;;;;;;;24.95;18.30;;;;;;;7.81;91.91;101574.63;7397031;19;20034;-68
2023/04/20 11:12:01;;;;;;;35.10;18.50;;;;;;;7.86;92.05;101569.41;7400220;19;20019;-67
2023/04/20 11:14:30;;;;;;;26.85;17.33;;;;;;;7.92;91.81;101563.31;7396971;19;20426;-67
2023/04/20 11:16:59;;;;;;;23.55;16.10;;;;;;;7.97;91.52;101562.47;7398646;19;20021;-67
2023/04/20 11:19:32;;;;;;;24.20;17.30;;;;;;;8.05;92.00;101551.13;7398590;19;20077;-67
2023/04/20 11:22:00;;;;;;;25.77;16.73;;;;;;;8.13;91.47;101546.81;7398358;19;20426;-66